createdAt,value
2017-07-12T00:00:20.649Z,2.80
2017-07-12T00:02:47.044Z,2.70
2017-07-12T00:05:14.220Z,3.30
2017-07-12T00:07:40.682Z,3.00
2017-07-12T00:10:07.081Z,2.53
2017-07-12T00:12:33.508Z,2.83
2017-07-12T00:14:59.951Z,3.23
2017-07-12T00:17:26.604Z,3.20
2017-07-12T00:19:53.018Z,3.37
2017-07-12T00:22:19.453Z,4.07
2017-07-12T00:24:45.857Z,3.57
2017-07-12T00:27:12.985Z,3.13
2017-07-12T00:29:39.410Z,3.70
2017-07-12T00:32:05.838Z,3.23
2017-07-12T00:34:32.250Z,3.60
2017-07-12T00:36:58.651Z,3.33
2017-07-12T00:39:25.068Z,3.20
2017-07-12T00:41:52.215Z,2.80
2017-07-12T00:44:19.352Z,3.70
2017-07-12T00:46:45.786Z,3.33
2017-07-12T00:49:12.191Z,3.03
2017-07-12T00:51:38.619Z,3.37
2017-07-12T00:54:05.028Z,2.77
2017-07-12T00:56:31.445Z,3.10
2017-07-12T00:58:57.888Z,3.37
2017-07-12T01:01:25.049Z,2.60
2017-07-12T01:03:51.443Z,2.80
2017-07-12T01:06:17.878Z,3.10
2017-07-12T01:08:45.058Z,3.20
2017-07-12T01:11:11.453Z,3.70
2017-07-12T01:13:37.862Z,3.10
2017-07-12T01:16:04.280Z,3.10
2017-07-12T01:18:30.718Z,3.60
2017-07-12T01:20:57.189Z,3.20
2017-07-12T01:23:23.567Z,3.63
2017-07-12T01:25:49.963Z,3.40
2017-07-12T01:28:17.138Z,3.40
2017-07-12T01:30:43.630Z,3.50
2017-07-12T01:33:10.035Z,3.33
2017-07-12T01:35:36.462Z,3.60
2017-07-12T01:38:02.921Z,3.07
2017-07-12T01:40:29.336Z,4.27
2017-07-12T01:42:55.744Z,3.10
2017-07-12T01:45:22.152Z,3.90
2017-07-12T01:47:48.624Z,3.70
2017-07-12T01:50:15.140Z,3.50
2017-07-12T01:52:41.606Z,3.70
2017-07-12T01:55:07.979Z,3.33
2017-07-12T01:57:35.119Z,3.20
2017-07-12T02:00:01.592Z,3.40
2017-07-12T02:02:28.006Z,3.07
2017-07-12T02:04:54.439Z,3.00
2017-07-12T02:07:20.876Z,3.70
2017-07-12T02:09:47.324Z,3.20
2017-07-12T02:12:13.716Z,3.00
2017-07-12T02:14:41.165Z,3.47
2017-07-12T02:17:07.574Z,3.10
2017-07-12T02:19:33.982Z,2.50
2017-07-12T02:22:00.404Z,3.43
2017-07-12T02:24:26.812Z,3.43
2017-07-12T02:26:53.969Z,3.17
2017-07-12T02:29:21.153Z,3.37
2017-07-12T02:31:47.544Z,3.83
2017-07-12T02:34:14.691Z,2.90
2017-07-12T02:36:41.857Z,3.83
2017-07-12T02:39:08.283Z,3.23
2017-07-12T02:41:35.437Z,3.37
2017-07-12T02:44:01.861Z,3.33
2017-07-12T02:46:29.024Z,3.40
2017-07-12T02:48:56.189Z,3.27
2017-07-12T02:51:22.668Z,3.37
2017-07-12T02:53:49.077Z,4.10
2017-07-12T02:56:15.486Z,3.83
2017-07-12T02:58:41.968Z,3.57
2017-07-12T03:01:08.389Z,3.30
2017-07-12T03:03:34.796Z,2.90
2017-07-12T03:06:01.205Z,3.70
2017-07-12T03:08:27.620Z,3.63
2017-07-12T03:10:54.057Z,3.23
2017-07-12T03:13:21.219Z,4.50
2017-07-12T03:15:47.691Z,3.00
2017-07-12T03:18:14.107Z,3.40
2017-07-12T03:20:40.524Z,3.73
2017-07-12T03:23:06.928Z,3.50
2017-07-12T03:25:33.327Z,3.43
2017-07-12T03:27:59.743Z,3.13
2017-07-12T03:30:26.158Z,3.53
2017-07-12T03:32:52.599Z,3.27
2017-07-12T03:35:19.014Z,3.20
2017-07-12T03:37:46.174Z,3.67
2017-07-12T03:40:12.579Z,3.40
2017-07-12T03:42:39.005Z,3.40
2017-07-12T03:45:05.389Z,3.23
2017-07-12T03:47:31.790Z,3.23
2017-07-12T03:49:58.937Z,3.37
2017-07-12T03:52:26.078Z,3.50
2017-07-12T03:54:53.206Z,3.87
2017-07-12T03:57:19.624Z,3.30
2017-07-12T03:59:46.036Z,3.33
2017-07-12T04:02:12.443Z,2.80
2017-07-12T04:04:38.924Z,3.60
2017-07-12T04:07:05.338Z,3.30
2017-07-12T04:09:31.787Z,3.80
2017-07-12T04:11:58.186Z,3.80
2017-07-12T04:14:24.620Z,3.00
2017-07-12T04:16:51.019Z,4.37
2017-07-12T04:19:17.424Z,3.70
2017-07-12T04:21:43.837Z,4.53
2017-07-12T04:24:10.271Z,9.70
2017-07-12T04:26:36.797Z,6.40
2017-07-12T04:29:03.218Z,3.40
2017-07-12T04:31:29.622Z,3.33
2017-07-12T04:33:56.752Z,7.00
2017-07-12T04:36:23.172Z,4.53
2017-07-12T04:38:49.589Z,3.77
2017-07-12T04:41:16.025Z,4.10
2017-07-12T04:43:42.466Z,4.17
2017-07-12T04:46:08.868Z,4.10
2017-07-12T04:48:35.289Z,7.37
2017-07-12T04:51:01.735Z,4.43
2017-07-12T04:53:28.145Z,4.10
2017-07-12T04:55:55.379Z,3.83
2017-07-12T04:58:22.541Z,4.50
2017-07-12T05:00:49.716Z,4.00
2017-07-12T05:03:16.134Z,4.20
2017-07-12T05:05:42.545Z,3.63
2017-07-12T05:08:09.713Z,4.20
2017-07-12T05:10:36.881Z,4.10
2017-07-12T05:13:03.286Z,3.77
2017-07-12T05:15:30.471Z,3.93
2017-07-12T05:17:56.997Z,3.77
2017-07-12T05:20:23.458Z,4.03
2017-07-12T05:22:49.869Z,4.30
2017-07-12T05:25:16.294Z,3.30
2017-07-12T05:27:42.734Z,4.20
2017-07-12T05:30:09.181Z,3.40
2017-07-12T05:32:35.632Z,3.70
2017-07-12T05:35:02.073Z,2.97
2017-07-12T05:37:28.504Z,3.07
2017-07-12T05:39:54.980Z,3.17
2017-07-12T05:42:21.411Z,2.30
2017-07-12T05:44:48.585Z,2.40
2017-07-12T05:47:15.001Z,2.50
2017-07-12T05:49:42.172Z,2.93
2017-07-12T05:52:08.585Z,2.30
2017-07-12T05:54:35.748Z,2.30
2017-07-12T05:57:02.213Z,2.80
2017-07-12T05:59:28.984Z,2.07
2017-07-12T06:01:55.427Z,2.37
2017-07-12T06:04:21.821Z,2.20
2017-07-12T06:06:48.242Z,2.03
2017-07-12T06:09:14.660Z,2.10
2017-07-12T06:11:41.066Z,2.37
2017-07-12T06:14:08.249Z,1.67
2017-07-12T06:16:34.679Z,2.47
2017-07-12T06:19:01.170Z,1.80
2017-07-12T06:21:28.391Z,1.87
2017-07-12T06:23:54.825Z,1.40
2017-07-12T06:26:21.259Z,1.97
2017-07-12T06:28:47.662Z,1.80
2017-07-12T06:31:14.104Z,1.83
2017-07-12T06:33:40.801Z,1.70
2017-07-12T06:36:07.964Z,1.53
2017-07-12T06:38:34.388Z,1.50
2017-07-12T06:41:01.538Z,1.80
2017-07-12T06:43:27.977Z,1.80
2017-07-12T06:45:54.406Z,1.80
2017-07-12T06:48:21.591Z,1.60
2017-07-12T06:50:48.021Z,1.67
2017-07-12T06:53:14.464Z,1.77
2017-07-12T06:55:40.889Z,1.90
2017-07-12T06:58:07.317Z,1.77
2017-07-12T07:00:33.743Z,1.57
2017-07-12T07:03:00.151Z,1.50
2017-07-12T07:05:26.583Z,1.70
2017-07-12T07:07:53.004Z,1.53
2017-07-12T07:10:19.434Z,1.30
2017-07-12T07:12:45.859Z,1.73
2017-07-12T07:15:12.308Z,1.50
2017-07-12T07:17:38.782Z,1.40
2017-07-12T07:20:05.320Z,1.30
2017-07-12T07:22:31.721Z,1.20
2017-07-12T07:24:58.979Z,1.40
2017-07-12T07:27:25.419Z,1.50
2017-07-12T07:29:52.616Z,1.40
2017-07-12T07:32:19.103Z,2.03
2017-07-12T07:34:45.619Z,1.43
2017-07-12T07:37:12.072Z,1.50
2017-07-12T07:39:38.503Z,1.70
2017-07-12T07:42:05.688Z,1.77
2017-07-12T07:44:32.079Z,1.43
2017-07-12T07:47:14.238Z,1.50
2017-07-12T07:49:40.646Z,1.50
2017-07-12T07:52:07.074Z,1.50
2017-07-12T07:54:33.495Z,2.20
2017-07-12T07:56:59.974Z,1.67
2017-07-12T07:59:26.371Z,1.60
2017-07-12T08:01:52.802Z,2.10
2017-07-12T08:04:19.224Z,1.80
2017-07-12T08:06:45.697Z,1.53
2017-07-12T08:09:12.104Z,1.63
2017-07-12T08:11:38.528Z,1.73
2017-07-12T08:14:04.934Z,1.33
2017-07-12T08:16:31.350Z,1.57
2017-07-12T08:18:57.760Z,1.90
2017-07-12T08:21:24.219Z,1.30
2017-07-12T08:23:50.672Z,1.83
2017-07-12T08:26:17.896Z,1.53
2017-07-12T08:28:44.305Z,1.60
2017-07-12T08:31:10.733Z,1.40
2017-07-12T08:33:37.156Z,1.13
2017-07-12T08:36:03.569Z,1.60
2017-07-12T08:38:30.716Z,1.30
2017-07-12T08:40:57.158Z,1.10
2017-07-12T08:43:24.325Z,1.53
2017-07-12T08:45:50.768Z,1.10
2017-07-12T08:48:17.177Z,1.20
2017-07-12T08:50:43.596Z,1.07
2017-07-12T08:53:10.782Z,1.30
2017-07-12T08:55:37.197Z,1.10
2017-07-12T08:58:03.647Z,1.40
2017-07-12T09:00:30.102Z,1.20
2017-07-12T09:02:56.516Z,0.97
2017-07-12T09:05:22.967Z,1.40
2017-07-12T09:07:49.384Z,1.20
2017-07-12T09:10:15.813Z,1.20
2017-07-12T09:12:42.250Z,1.20
2017-07-12T09:15:08.640Z,1.00
2017-07-12T09:17:35.034Z,1.47
2017-07-12T09:20:01.468Z,1.43
2017-07-12T09:22:27.873Z,1.10
2017-07-12T09:34:40.451Z,1.00
2017-07-12T09:37:06.860Z,1.20
2017-07-12T09:39:33.982Z,1.13
2017-07-12T09:42:00.413Z,1.20
2017-07-12T09:44:26.845Z,1.57
2017-07-12T09:46:53.306Z,0.90
2017-07-12T09:49:20.443Z,1.20
2017-07-12T09:51:46.877Z,1.23
2017-07-12T09:54:13.363Z,1.77
2017-07-12T09:56:39.787Z,1.50
2017-07-12T09:59:06.221Z,1.40
2017-07-12T10:01:32.641Z,0.97
2017-07-12T10:03:59.083Z,1.30
2017-07-12T10:06:25.493Z,1.37
2017-07-12T10:08:51.903Z,1.70
2017-07-12T10:11:18.330Z,1.57
2017-07-12T10:13:44.780Z,1.30
2017-07-12T10:16:11.914Z,1.63
2017-07-12T10:18:38.351Z,1.30
2017-07-12T10:21:04.756Z,1.67
2017-07-12T10:23:31.173Z,1.87
2017-07-12T10:25:57.584Z,1.60
2017-07-12T10:28:24.002Z,1.40
2017-07-12T10:30:51.162Z,1.40
2017-07-12T10:33:18.314Z,1.60
2017-07-12T10:35:44.748Z,1.40
2017-07-12T10:38:11.182Z,1.80
2017-07-12T10:40:37.585Z,1.53
2017-07-12T10:43:04.014Z,1.50
2017-07-12T10:45:30.412Z,1.50
2017-07-12T10:47:56.810Z,1.53
2017-07-12T10:50:24.045Z,1.60
2017-07-12T10:52:51.255Z,1.70
2017-07-12T10:55:17.666Z,1.30
2017-07-12T10:57:44.073Z,1.40
2017-07-12T11:00:10.537Z,1.40
2017-07-12T11:02:36.960Z,1.63
2017-07-12T11:05:03.394Z,1.90
2017-07-12T11:07:29.825Z,1.27
2017-07-12T11:09:56.257Z,1.23
2017-07-12T11:12:22.669Z,1.90
2017-07-12T11:14:49.840Z,1.30
2017-07-12T11:17:16.286Z,1.80
2017-07-12T11:19:42.684Z,1.30
2017-07-12T11:22:09.828Z,1.67
2017-07-12T11:24:36.221Z,1.27
2017-07-12T11:27:02.663Z,1.70
2017-07-12T11:29:29.091Z,1.40
2017-07-12T11:31:55.515Z,1.70
2017-07-12T11:34:21.989Z,1.80
2017-07-12T11:36:49.176Z,1.57
2017-07-12T11:39:15.616Z,1.50
2017-07-12T11:41:42.078Z,1.80
2017-07-12T11:44:08.480Z,1.30
2017-07-12T11:46:34.853Z,2.00
2017-07-12T11:49:01.252Z,1.63
2017-07-12T11:51:27.655Z,2.00
2017-07-12T11:53:54.784Z,1.83
2017-07-12T11:56:21.221Z,1.43
2017-07-12T11:58:48.379Z,1.43
2017-07-12T12:01:15.543Z,2.00
2017-07-12T12:03:41.961Z,1.50
2017-07-12T12:06:09.180Z,1.90
2017-07-12T12:08:35.621Z,1.33
2017-07-12T12:11:02.074Z,1.90
2017-07-12T12:13:28.476Z,1.77
2017-07-12T12:15:54.916Z,1.67
2017-07-12T12:18:21.379Z,1.73
2017-07-12T12:20:48.538Z,1.80
2017-07-12T12:23:15.684Z,1.40
2017-07-12T12:25:42.857Z,1.50
2017-07-12T12:28:09.298Z,1.57
2017-07-12T12:30:35.730Z,1.50
2017-07-12T12:33:02.123Z,1.80
2017-07-12T12:35:28.554Z,1.40
2017-07-12T12:37:54.972Z,1.90
2017-07-12T12:40:21.394Z,2.10
2017-07-12T12:42:47.829Z,1.90
2017-07-12T12:45:14.276Z,2.10
2017-07-12T12:47:40.691Z,1.83
2017-07-12T12:50:07.091Z,1.60
2017-07-12T12:52:33.531Z,2.23
2017-07-12T12:54:59.998Z,2.80
2017-07-12T12:57:26.456Z,1.80
2017-07-12T12:59:54.645Z,1.40
2017-07-12T13:02:21.825Z,1.90
2017-07-12T13:04:54.416Z,2.13
2017-07-12T13:07:20.844Z,2.00
2017-07-12T13:09:47.270Z,1.83
2017-07-12T13:12:13.747Z,1.87
2017-07-12T13:14:40.917Z,1.80
2017-07-12T13:17:08.071Z,1.30
2017-07-12T13:19:35.249Z,1.80
2017-07-12T13:22:02.019Z,1.67
2017-07-12T13:24:28.784Z,1.60
2017-07-12T13:26:55.237Z,1.97
2017-07-12T13:29:21.728Z,1.80
2017-07-12T13:31:48.109Z,1.93
2017-07-12T13:34:14.560Z,1.50
2017-07-12T13:36:40.961Z,1.30
2017-07-12T13:42:28.294Z,1.90
2017-07-12T13:44:55.495Z,1.80
2017-07-12T13:47:21.902Z,1.47
2017-07-12T13:49:49.973Z,1.90
2017-07-12T13:52:17.139Z,1.60
2017-07-12T13:54:43.528Z,1.60
2017-07-12T13:57:09.940Z,1.83
2017-07-12T13:59:36.342Z,1.70
2017-07-12T14:02:02.888Z,1.60
2017-07-12T14:04:29.304Z,1.90
2017-07-12T14:06:55.725Z,1.63
2017-07-12T14:09:22.887Z,1.73
2017-07-12T14:11:49.356Z,2.13
2017-07-12T14:14:15.788Z,2.10
2017-07-12T14:16:42.187Z,2.03
2017-07-12T14:19:08.672Z,1.43
2017-07-12T14:21:35.110Z,1.60
2017-07-12T14:24:01.516Z,1.53
2017-07-12T14:26:27.924Z,1.77
2017-07-12T14:28:54.333Z,1.30
2017-07-12T14:31:21.509Z,2.10
2017-07-12T14:33:47.941Z,1.70
2017-07-12T14:36:14.381Z,2.07
2017-07-12T14:38:55.705Z,1.73
2017-07-12T14:41:22.100Z,1.87
2017-07-12T14:43:48.505Z,1.50
2017-07-12T14:46:14.942Z,2.37
2017-07-12T14:48:41.353Z,1.73
2017-07-12T14:51:08.496Z,1.70
2017-07-12T14:53:34.907Z,1.50
2017-07-12T14:56:01.317Z,1.90
2017-07-12T14:58:27.739Z,1.93
2017-07-12T15:00:54.140Z,1.80
2017-07-12T15:03:20.532Z,1.80
2017-07-12T15:05:46.956Z,1.60
2017-07-12T15:08:13.362Z,1.97
2017-07-12T15:10:39.777Z,1.77
2017-07-12T15:13:06.928Z,1.83
2017-07-12T15:15:33.344Z,2.00
2017-07-12T15:17:59.740Z,1.83
2017-07-12T15:20:26.134Z,2.00
2017-07-12T15:22:53.297Z,1.40
2017-07-12T15:25:19.712Z,1.73
2017-07-12T15:27:46.884Z,2.10
2017-07-12T15:30:13.301Z,1.93
2017-07-12T15:32:40.464Z,1.70
2017-07-12T15:35:06.865Z,1.87
2017-07-12T15:37:33.295Z,2.07
2017-07-12T15:39:59.709Z,1.70
2017-07-12T15:42:26.148Z,1.70
2017-07-12T15:44:52.562Z,1.50
2017-07-12T15:47:18.986Z,1.63
2017-07-12T15:49:45.396Z,1.67
2017-07-12T15:52:11.781Z,2.00
2017-07-12T15:54:38.184Z,2.07
2017-07-12T15:57:04.609Z,2.07
2017-07-12T15:59:31.071Z,1.80
2017-07-12T16:01:57.490Z,1.70
2017-07-12T16:04:23.925Z,1.70
2017-07-12T16:06:50.324Z,2.30
2017-07-12T16:09:16.741Z,1.90
2017-07-12T16:11:43.893Z,1.57
2017-07-12T16:14:11.036Z,1.90
2017-07-12T16:16:38.220Z,1.73
2017-07-12T16:19:04.638Z,1.60
2017-07-12T16:21:31.068Z,1.80
2017-07-12T16:23:57.492Z,1.80
2017-07-12T16:26:24.737Z,2.00
2017-07-12T16:28:51.900Z,1.80
2017-07-12T16:31:18.313Z,1.87
2017-07-12T16:33:45.454Z,2.03
2017-07-12T16:36:11.842Z,1.63
2017-07-12T16:38:38.232Z,1.60
2017-07-12T16:41:05.388Z,1.70
2017-07-12T16:43:32.522Z,2.00
2017-07-12T16:45:58.941Z,1.90
2017-07-12T16:48:25.372Z,2.00
2017-07-12T16:50:51.767Z,2.30
2017-07-12T16:53:18.173Z,2.00
2017-07-12T16:55:45.317Z,2.03
2017-07-12T16:58:12.450Z,2.10
2017-07-12T17:00:38.821Z,2.40
2017-07-12T17:03:05.230Z,1.90
2017-07-12T17:05:32.413Z,2.20
2017-07-12T17:07:58.847Z,1.90
2017-07-12T17:10:25.286Z,1.70
2017-07-12T17:12:51.686Z,1.87
2017-07-12T17:15:18.858Z,1.77
2017-07-12T17:17:45.658Z,1.87
2017-07-12T17:20:12.066Z,2.00
2017-07-12T17:22:38.486Z,1.87
2017-07-12T17:25:04.907Z,1.90
2017-07-12T17:27:31.308Z,2.17
2017-07-12T17:29:59.127Z,1.87
2017-07-12T17:32:25.575Z,1.80
2017-07-12T17:34:53.032Z,2.23
2017-07-12T17:37:19.473Z,1.87
2017-07-12T17:39:45.910Z,2.33
2017-07-12T17:42:12.307Z,1.80
2017-07-12T17:44:38.770Z,2.50
2017-07-12T17:47:06.812Z,2.83
2017-07-12T17:49:33.214Z,2.37
2017-07-12T17:51:59.606Z,2.37
2017-07-12T17:54:26.053Z,3.77
2017-07-12T17:56:52.807Z,2.50
2017-07-12T17:59:19.216Z,3.90
2017-07-12T18:01:45.796Z,2.60
2017-07-12T18:04:12.209Z,2.97
2017-07-12T18:06:38.629Z,2.30
2017-07-12T18:09:05.794Z,2.50
2017-07-12T18:11:32.963Z,2.70
2017-07-12T18:13:59.368Z,2.77
2017-07-12T18:16:26.544Z,2.83
2017-07-12T18:18:52.953Z,2.80
2017-07-12T18:21:20.503Z,2.83
2017-07-12T18:23:47.709Z,2.43
2017-07-12T18:26:14.129Z,2.13
2017-07-12T18:28:40.553Z,2.80
2017-07-12T18:31:06.991Z,3.70
2017-07-12T18:33:33.410Z,3.10
2017-07-12T18:36:00.572Z,2.60
2017-07-12T18:38:27.033Z,2.70
2017-07-12T18:40:53.482Z,2.47
2017-07-12T18:43:19.953Z,3.03
2017-07-12T18:45:46.415Z,2.80
2017-07-12T18:48:12.856Z,3.40
2017-07-12T18:50:39.298Z,2.83
2017-07-12T18:53:06.314Z,2.47
2017-07-12T18:55:32.750Z,2.90
2017-07-12T18:57:59.185Z,2.87
2017-07-12T19:00:25.623Z,2.40
2017-07-12T19:02:53.013Z,3.07
2017-07-12T19:05:19.476Z,3.53
2017-07-12T19:07:47.649Z,2.87
2017-07-12T19:10:14.809Z,3.60
2017-07-12T19:12:41.961Z,3.67
2017-07-12T19:15:09.092Z,3.33
2017-07-12T19:17:35.494Z,3.87
2017-07-12T19:20:01.894Z,4.50
2017-07-12T19:22:28.293Z,4.40
2017-07-12T19:24:54.696Z,3.87
2017-07-12T19:27:21.121Z,4.13
2017-07-12T19:29:47.585Z,4.43
2017-07-12T19:32:14.018Z,4.30
2017-07-12T19:34:40.404Z,4.10
2017-07-12T19:37:06.808Z,3.93
2017-07-12T19:39:34.054Z,4.17
2017-07-12T19:42:01.204Z,3.93
2017-07-12T19:44:28.349Z,3.67
2017-07-12T19:46:55.507Z,3.40
2017-07-12T19:49:22.654Z,3.83
2017-07-12T19:51:49.792Z,4.20
2017-07-12T19:54:16.945Z,3.57
2017-07-12T19:56:44.096Z,3.20
2017-07-12T19:59:11.263Z,2.70
2017-07-12T20:01:38.433Z,3.60
2017-07-12T20:04:04.808Z,4.30
2017-07-12T20:06:31.239Z,4.40
2017-07-12T20:08:57.636Z,3.77
2017-07-12T20:11:24.060Z,3.67
2017-07-12T20:13:50.455Z,4.17
2017-07-12T20:16:17.628Z,3.00
2017-07-12T20:18:44.044Z,3.77
2017-07-12T20:21:11.205Z,3.40
2017-07-12T20:23:38.377Z,3.30
2017-07-12T20:26:04.809Z,3.50
2017-07-12T20:28:31.207Z,3.70
2017-07-12T20:30:58.360Z,3.80
2017-07-12T20:33:24.816Z,3.67
2017-07-12T20:35:51.528Z,3.00
2017-07-12T20:38:18.697Z,3.10
2017-07-12T20:40:45.832Z,2.47
2017-07-12T20:43:12.878Z,2.83
2017-07-12T20:45:40.036Z,2.50
2017-07-12T20:48:07.187Z,2.37
2017-07-12T20:50:34.358Z,2.10
2017-07-12T20:53:00.778Z,2.33
2017-07-12T20:55:27.931Z,2.20
2017-07-12T20:57:54.349Z,2.37
2017-07-12T21:00:21.510Z,2.23
2017-07-12T21:02:47.924Z,2.07
2017-07-12T21:05:14.310Z,2.00
2017-07-12T21:07:40.717Z,1.80
2017-07-12T21:10:07.561Z,2.00
2017-07-12T21:12:33.960Z,2.23
2017-07-12T21:15:01.182Z,2.33
2017-07-12T21:17:27.683Z,1.83
2017-07-12T21:19:55.004Z,1.80
2017-07-12T21:22:21.401Z,1.80
2017-07-12T21:24:47.829Z,1.83
2017-07-12T21:27:14.238Z,2.03
2017-07-12T21:29:40.640Z,1.77
2017-07-12T21:32:07.463Z,1.53
2017-07-12T21:34:33.928Z,2.03
2017-07-12T21:37:00.339Z,1.90
2017-07-12T21:39:27.497Z,1.80
2017-07-12T21:41:54.649Z,2.10
2017-07-12T21:44:21.791Z,1.83
2017-07-12T21:46:48.182Z,1.93
2017-07-12T21:49:14.573Z,2.20
2017-07-12T21:51:41.716Z,2.70
2017-07-12T21:54:27.456Z,1.73
2017-07-12T21:57:12.305Z,1.87
2017-07-12T21:59:57.144Z,1.77
2017-07-12T22:02:41.888Z,1.70
2017-07-12T22:05:26.759Z,1.50
2017-07-12T22:08:11.576Z,2.70
2017-07-12T22:10:56.339Z,2.00
2017-07-12T22:13:41.047Z,1.33
2017-07-12T22:16:26.562Z,1.53
2017-07-12T22:19:11.417Z,1.50
2017-07-12T22:21:56.181Z,1.30
2017-07-12T22:24:41.061Z,1.40
2017-07-12T22:27:25.875Z,1.07
2017-07-12T22:30:10.742Z,1.47
2017-07-12T22:32:56.205Z,1.50
2017-07-12T22:35:41.054Z,1.30
2017-07-12T22:38:13.392Z,1.47
2017-07-12T22:40:45.987Z,1.17
2017-07-12T22:43:18.577Z,1.17
2017-07-12T22:45:45.021Z,1.20
2017-07-12T22:48:11.470Z,1.33
2017-07-12T22:50:37.884Z,1.30
2017-07-12T22:53:04.277Z,1.00
2017-07-12T22:55:30.709Z,1.40
2017-07-12T22:57:57.121Z,1.10
2017-07-12T23:00:24.256Z,1.20
2017-07-12T23:02:50.645Z,1.10
2017-07-12T23:05:17.058Z,1.00
2017-07-12T23:07:43.452Z,1.20
2017-07-12T23:10:09.866Z,1.37
2017-07-12T23:12:36.280Z,1.53
2017-07-12T23:15:02.736Z,1.20
2017-07-12T23:17:29.194Z,1.30
2017-07-12T23:20:02.369Z,1.27
2017-07-12T23:22:28.837Z,1.07
2017-07-12T23:24:55.241Z,1.30
2017-07-12T23:27:21.872Z,1.20
2017-07-12T23:29:48.288Z,1.20
2017-07-12T23:32:14.704Z,1.20
2017-07-12T23:34:41.955Z,1.00
2017-07-12T23:37:08.362Z,0.90
2017-07-12T23:39:34.801Z,1.00
2017-07-12T23:42:01.204Z,1.30
2017-07-12T23:44:28.361Z,1.07
2017-07-12T23:46:55.512Z,0.93
2017-07-12T23:49:22.643Z,1.17
2017-07-12T23:51:49.075Z,1.10
2017-07-12T23:54:16.245Z,1.00
2017-07-12T23:56:43.403Z,1.00
2017-07-12T23:59:09.807Z,1.17
